Time;durP1;ratioP1;P1;durP2;ratioP2;P2;SDS_P1;SDS_P2;PMS_P1;PMS_P2;Temp;Humidity;BMP_temperature;BMP_pressure;BME280_temperature;BME280_humidity;BME280_pressure;Samples;Min_cycle;Max_cycle;Signal;HPM_P1;HPM_P2
2022/09/13 00:00:18;;;;;;;13.35;7.03;;;;;;;;;;5112302;28;20073;-76
2022/09/13 00:02:44;;;;;;;11.52;6.35;;;;;;;;;;5112717;28;20024;-77
2022/09/13 00:05:10;;;;;;;11.27;6.95;;;;;;;;;;5112363;28;20035;-76
2022/09/13 00:07:36;;;;;;;10.05;7.70;;;;;;;;;;5112570;28;20020;-77
2022/09/13 00:10:03;;;;;;;14.60;7.00;;;;;;;;;;5112504;28;20031;-76
2022/09/13 00:12:29;;;;;;;10.95;7.38;;;;;;;;;;5112216;28;20047;-76
2022/09/13 00:14:55;;;;;;;16.67;8.07;;;;;;;;;;5112264;28;20035;-77
2022/09/13 00:17:21;;;;;;;16.10;8.05;;;;;;;;;;5112276;28;20023;-76
2022/09/13 00:19:47;;;;;;;12.07;7.82;;;;;;;;;;5112364;28;20325;-76
2022/09/13 00:22:13;;;;;;;11.48;7.53;;;;;;;;;;5112396;28;20333;-77
2022/09/13 00:24:40;;;;;;;11.00;7.65;;;;;;;;;;5111931;28;20193;-77
2022/09/13 00:27:06;;;;;;;15.07;8.75;;;;;;;;;;5112027;28;20081;-77
2022/09/13 00:29:32;;;;;;;13.45;8.32;;;;;;;;;;5112131;28;20095;-76
2022/09/13 00:31:58;;;;;;;13.10;8.40;;;;;;;;;;5111992;28;20438;-77
2022/09/13 00:34:24;;;;;;;12.40;8.38;;;;;;;;;;5112029;28;20046;-76
2022/09/13 00:36:50;;;;;;;14.18;7.85;;;;;;;;;;5112109;28;20081;-76
2022/09/13 00:39:16;;;;;;;12.10;8.02;;;;;;;;;;5111890;28;20473;-76
2022/09/13 00:41:42;;;;;;;14.10;8.85;;;;;;;;;;5111910;28;20027;-76
2022/09/13 00:44:27;;;;;;;12.35;8.25;;;;;;;;;;5111755;28;20042;-76
2022/09/13 00:46:53;;;;;;;13.18;8.50;;;;;;;;;;5111762;28;20094;-76
2022/09/13 00:49:25;;;;;;;11.38;7.72;;;;;;;;;;5112014;28;20032;-76
2022/09/13 00:51:56;;;;;;;17.65;10.25;;;;;;;;;;5112185;28;20469;-76
2022/09/13 00:54:23;;;;;;;18.05;8.43;;;;;;;;;;5111522;28;20035;-76
2022/09/13 00:56:51;;;;;;;13.18;8.93;;;;;;;;;;5111634;28;20031;-76
2022/09/13 00:59:20;;;;;;;13.57;8.88;;;;;;;;;;5111692;28;20024;-76
2022/09/13 01:01:48;;;;;;;14.93;8.98;;;;;;;;;;5111662;28;20110;-76
2022/09/13 01:04:15;;;;;;;16.73;8.68;;;;;;;;;;5111488;28;20675;-76
2022/09/13 01:06:41;;;;;;;13.52;8.95;;;;;;;;;;5113772;28;20026;-75
2022/09/13 01:09:08;;;;;;;12.10;8.57;;;;;;;;;;5118487;28;20080;-76
2022/09/13 01:11:42;;;;;;;15.55;9.25;;;;;;;;;;5118368;28;20054;-76
2022/09/13 01:14:08;;;;;;;16.80;10.13;;;;;;;;;;5118474;28;20058;-76
2022/09/13 01:16:34;;;;;;;19.65;8.95;;;;;;;;;;5118368;28;20087;-76
2022/09/13 01:19:00;;;;;;;17.40;9.63;;;;;;;;;;5118448;28;20024;-75
2022/09/13 01:21:43;;;;;;;14.35;10.13;;;;;;;;;;5118466;28;20357;-76
2022/09/13 01:24:17;;;;;;;17.20;10.38;;;;;;;;;;5118198;28;20063;-76
2022/09/13 01:26:51;;;;;;;14.32;10.10;;;;;;;;;;5118288;28;20030;-75
2022/09/13 01:29:17;;;;;;;14.07;9.82;;;;;;;;;;5118319;28;20724;-76
2022/09/13 01:31:43;;;;;;;16.15;10.75;;;;;;;;;;5099777;28;20034;-76
2022/09/13 01:34:16;;;;;;;17.33;10.32;;;;;;;;;;5118181;28;20023;-76
2022/09/13 01:36:56;;;;;;;14.55;10.07;;;;;;;;;;5118271;28;20445;-76
2022/09/13 01:39:41;;;;;;;15.60;9.95;;;;;;;;;;5117890;28;20106;-76
2022/09/13 01:42:07;;;;;;;13.80;9.93;;;;;;;;;;5118237;28;20123;-76
2022/09/13 01:44:36;;;;;;;16.52;10.07;;;;;;;;;;5118133;28;20110;-76
2022/09/13 01:47:02;;;;;;;18.17;10.15;;;;;;;;;;5118061;28;20545;-76
2022/09/13 01:49:47;;;;;;;13.57;9.43;;;;;;;;;;5099502;28;20118;-76
2022/09/13 01:52:17;;;;;;;19.10;11.38;;;;;;;;;;5118129;28;20039;-76
2022/09/13 01:54:49;;;;;;;18.90;10.75;;;;;;;;;;5117934;28;20042;-76
2022/09/13 01:57:30;;;;;;;19.55;10.93;;;;;;;;;;5118129;28;20141;-76
2022/09/13 02:00:02;;;;;;;18.17;11.13;;;;;;;;;;5117862;28;20110;-76
2022/09/13 02:02:32;;;;;;;15.88;9.93;;;;;;;;;;5118081;28;20388;-76
2022/09/13 02:05:02;;;;;;;17.30;10.77;;;;;;;;;;5117828;28;20081;-76
2022/09/13 02:07:36;;;;;;;21.27;12.85;;;;;;;;;;5118011;28;20103;-76
2022/09/13 02:10:11;;;;;;;18.90;11.65;;;;;;;;;;5117634;28;20027;-76
2022/09/13 02:12:40;;;;;;;19.17;11.93;;;;;;;;;;5117753;28;20048;-76
2022/09/13 02:15:32;;;;;;;18.58;12.70;;;;;;;;;;5117943;28;20386;-76
2022/09/13 02:18:17;;;;;;;19.15;11.98;;;;;;;;;;5111990;27;20574;-76
2022/09/13 02:20:44;;;;;;;16.55;12.25;;;;;;;;;;5114717;28;20024;-76
2022/09/13 02:23:12;;;;;;;20.40;12.90;;;;;;;;;;5114527;28;20027;-76
2022/09/13 02:25:39;;;;;;;17.05;12.32;;;;;;;;;;5114330;28;20027;-76
2022/09/13 02:28:07;;;;;;;22.15;14.13;;;;;;;;;;5114506;28;20027;-76
2022/09/13 02:30:35;;;;;;;22.70;13.23;;;;;;;;;;5114338;28;20559;-76
2022/09/13 02:33:05;;;;;;;17.40;11.90;;;;;;;;;;5114641;28;20436;-76
2022/09/13 02:35:35;;;;;;;17.45;11.77;;;;;;;;;;5114365;28;20106;-76
2022/09/13 02:38:06;;;;;;;19.85;12.13;;;;;;;;;;5114259;28;20023;-76
2022/09/13 02:40:37;;;;;;;16.30;11.82;;;;;;;;;;5114176;28;20430;-76
2022/09/13 02:43:23;;;;;;;20.88;13.07;;;;;;;;;;5114253;28;20031;-76
2022/09/13 02:45:59;;;;;;;22.60;13.45;;;;;;;;;;5096624;28;20042;-76
2022/09/13 02:48:29;;;;;;;20.70;12.85;;;;;;;;;;5114009;28;20031;-76
2022/09/13 02:51:01;;;;;;;20.52;13.13;;;;;;;;;;5114338;28;20032;-76
2022/09/13 02:53:43;;;;;;;19.48;12.18;;;;;;;;;;5114001;28;20518;-76
2022/09/13 02:56:16;;;;;;;21.83;12.73;;;;;;;;;;5097587;28;20024;-76
2022/09/13 02:58:43;;;;;;;23.50;13.38;;;;;;;;;;5093503;28;20066;-76
2022/09/13 03:01:09;;;;;;;19.65;12.48;;;;;;;;;;5093315;28;20012;-76
2022/09/13 03:03:35;;;;;;;23.48;13.35;;;;;;;;;;5093379;28;20024;-76
2022/09/13 03:06:01;;;;;;;22.05;13.55;;;;;;;;;;5093286;28;20028;-76
2022/09/13 03:08:28;;;;;;;22.45;13.45;;;;;;;;;;5093289;28;20081;-76
2022/09/13 03:10:54;;;;;;;20.92;13.13;;;;;;;;;;5093623;28;20024;-76
2022/09/13 03:13:34;;;;;;;20.17;13.38;;;;;;;;;;5093087;28;20051;-76
2022/09/13 03:16:03;;;;;;;20.10;12.85;;;;;;;;;;5093121;28;20442;-76
2022/09/13 03:18:39;;;;;;;21.52;13.43;;;;;;;;;;5093270;28;20044;-76
2022/09/13 03:21:08;;;;;;;19.23;12.90;;;;;;;;;;5093230;28;20024;-75
2022/09/13 03:23:54;;;;;;;23.05;13.57;;;;;;;;;;5093114;28;20209;-76
2022/09/13 03:26:26;;;;;;;22.75;12.88;;;;;;;;;;5109773;28;20034;-76
2022/09/13 03:29:01;;;;;;;21.60;13.20;;;;;;;;;;5113328;28;20012;-76
2022/09/13 03:31:40;;;;;;;19.02;13.13;;;;;;;;;;5113123;28;20015;-76
2022/09/13 03:34:10;;;;;;;22.80;12.85;;;;;;;;;;5113286;28;20448;-76
2022/09/13 03:36:39;;;;;;;21.08;12.50;;;;;;;;;;5113149;28;20038;-76
2022/09/13 03:39:17;;;;;;;21.38;12.68;;;;;;;;;;5104843;28;20042;-76
2022/09/13 03:41:46;;;;;;;18.40;11.95;;;;;;;;;;5074194;28;20028;-76
2022/09/13 03:44:14;;;;;;;19.83;12.95;;;;;;;;;;5092591;28;20024;-76
2022/09/13 03:46:42;;;;;;;17.42;12.88;;;;;;;;;;5092477;28;20016;-76
2022/09/13 03:49:10;;;;;;;20.77;12.45;;;;;;;;;;5092409;28;20032;-76
2022/09/13 03:51:37;;;;;;;18.42;13.15;;;;;;;;;;5073992;28;20028;-76
2022/09/13 03:54:04;;;;;;;19.75;12.90;;;;;;;;;;5092281;28;20036;-76
2022/09/13 03:56:30;;;;;;;18.42;12.00;;;;;;;;;;5092232;28;20036;-76
2022/09/13 03:58:56;;;;;;;22.90;13.52;;;;;;;;;;5092212;28;20028;-76
2022/09/13 04:01:23;;;;;;;19.35;12.75;;;;;;;;;;5091896;28;20028;-76
2022/09/13 04:03:50;;;;;;;18.00;12.52;;;;;;;;;;5092174;28;20539;-76
2022/09/13 04:06:16;;;;;;;20.70;12.95;;;;;;;;;;5092009;28;20055;-76
2022/09/13 04:08:43;;;;;;;25.63;13.48;;;;;;;;;;5092083;28;20073;-76
2022/09/13 04:11:09;;;;;;;20.33;12.98;;;;;;;;;;5091959;28;20077;-76
2022/09/13 04:13:36;;;;;;;22.40;12.93;;;;;;;;;;5091765;28;20126;-76
2022/09/13 04:16:03;;;;;;;20.85;12.52;;;;;;;;;;5092044;28;20024;-76
2022/09/13 04:18:29;;;;;;;18.95;12.68;;;;;;;;;;5107754;28;20671;-75
2022/09/13 04:20:56;;;;;;;20.75;14.57;;;;;;;;;;5112251;28;20035;-76
2022/09/13 04:23:22;;;;;;;18.80;12.82;;;;;;;;;;5112416;28;20124;-76
2022/09/13 04:25:50;;;;;;;22.02;13.38;;;;;;;;;;5112186;28;20438;-76
2022/09/13 04:28:16;;;;;;;23.60;13.70;;;;;;;;;;5112277;28;20054;-76
2022/09/13 04:30:45;;;;;;;22.65;13.35;;;;;;;;;;5112170;28;20047;-76
2022/09/13 04:33:12;;;;;;;21.92;13.77;;;;;;;;;;5112000;28;20051;-75
2022/09/13 04:35:38;;;;;;;19.05;13.25;;;;;;;;;;5112194;28;20029;-76
2022/09/13 04:38:04;;;;;;;18.38;13.27;;;;;;;;;;5112078;28;20027;-75
2022/09/13 04:40:30;;;;;;;18.73;13.05;;;;;;;;;;5111897;28;20039;-75
2022/09/13 04:42:56;;;;;;;20.98;13.35;;;;;;;;;;5111526;28;20085;-75
2022/09/13 04:45:23;;;;;;;19.88;13.07;;;;;;;;;;5111742;28;20377;-76
2022/09/13 04:47:53;;;;;;;26.33;13.98;;;;;;;;;;5111623;28;20020;-76
2022/09/13 04:50:20;;;;;;;25.23;13.98;;;;;;;;;;5111867;28;20350;-76
2022/09/13 04:52:46;;;;;;;20.50;13.13;;;;;;;;;;5111779;28;20027;-76
2022/09/13 04:55:13;;;;;;;25.48;13.38;;;;;;;;;;5111671;28;20122;-76
2022/09/13 04:57:39;;;;;;;21.33;13.90;;;;;;;;;;5111941;28;20034;-76
2022/09/13 05:00:05;;;;;;;23.95;13.10;;;;;;;;;;5111445;28;20157;-76
2022/09/13 05:02:32;;;;;;;28.65;14.98;;;;;;;;;;5111839;28;20043;-76
2022/09/13 05:04:58;;;;;;;22.25;14.55;;;;;;;;;;5111530;28;20035;-76
2022/09/13 05:07:24;;;;;;;21.10;13.57;;;;;;;;;;5111742;28;20020;-76
2022/09/13 05:09:50;;;;;;;25.50;14.52;;;;;;;;;;5111578;28;20308;-76
2022/09/13 05:12:16;;;;;;;26.63;13.13;;;;;;;;;;5111414;28;20035;-76
2022/09/13 05:14:42;;;;;;;19.98;12.32;;;;;;;;;;5111790;28;20480;-76
2022/09/13 05:17:08;;;;;;;24.98;14.05;;;;;;;;;;5111624;28;20027;-76
2022/09/13 05:19:34;;;;;;;24.50;15.05;;;;;;;;;;5111598;28;20032;-76
2022/09/13 05:22:00;;;;;;;19.05;13.07;;;;;;;;;;5111865;28;20035;-76
2022/09/13 05:24:26;;;;;;;25.35;14.88;;;;;;;;;;5111459;28;20024;-76
2022/09/13 05:26:53;;;;;;;21.52;13.02;;;;;;;;;;5111211;28;20092;-76
2022/09/13 05:29:19;;;;;;;27.77;14.98;;;;;;;;;;5111543;28;20027;-76
2022/09/13 05:31:45;;;;;;;19.73;12.80;;;;;;;;;;5111237;28;20035;-76
2022/09/13 05:34:13;;;;;;;26.52;13.88;;;;;;;;;;5111547;28;20092;-76
2022/09/13 05:36:39;;;;;;;25.20;13.38;;;;;;;;;;5111480;28;20108;-76
2022/09/13 05:39:06;;;;;;;24.60;13.30;;;;;;;;;;5103335;28;20028;-76
2022/09/13 05:41:33;;;;;;;21.83;14.52;;;;;;;;;;5091166;28;20020;-76
2022/09/13 05:43:59;;;;;;;22.88;13.75;;;;;;;;;;5090948;28;20036;-76
2022/09/13 05:46:25;;;;;;;25.17;13.32;;;;;;;;;;5072724;28;20314;-76
2022/09/13 05:48:51;;;;;;;21.23;13.48;;;;;;;;;;5091113;28;20107;-76
2022/09/13 05:51:21;;;;;;;20.55;13.63;;;;;;;;;;5090969;28;20562;-76
2022/09/13 05:53:48;;;;;;;25.08;13.85;;;;;;;;;;5091997;28;20525;-76
2022/09/13 05:56:16;;;;;;;28.13;14.90;;;;;;;;;;5076146;28;20027;-76
2022/09/13 05:58:43;;;;;;;23.58;15.35;;;;;;;;;;5094823;28;20489;-76
2022/09/13 06:01:10;;;;;;;21.83;15.60;;;;;;;;;;5094578;28;20043;-76
2022/09/13 06:03:36;;;;;;;21.58;14.13;;;;;;;;;;5094732;28;20517;-76
2022/09/13 06:06:03;;;;;;;21.17;14.00;;;;;;;;;;5094710;28;20101;-76
2022/09/13 06:08:30;;;;;;;21.73;14.40;;;;;;;;;;5094790;28;20431;-76
2022/09/13 06:10:57;;;;;;;19.65;12.63;;;;;;;;;;5094567;28;20525;-76
2022/09/13 06:13:23;;;;;;;27.85;14.23;;;;;;;;;;5094435;28;20051;-76
2022/09/13 06:15:49;;;;;;;18.17;12.18;;;;;;;;;;5094602;28;20462;-76
2022/09/13 06:18:16;;;;;;;19.95;12.27;;;;;;;;;;5122700;27;20035;-76
2022/09/13 06:20:42;;;;;;;27.15;14.52;;;;;;;;;;5135307;27;20015;-76
2022/09/13 06:23:08;;;;;;;25.90;14.65;;;;;;;;;;5135156;27;20373;-76
2022/09/13 06:25:34;;;;;;;28.08;15.10;;;;;;;;;;5131407;27;20023;-76
2022/09/13 06:28:00;;;;;;;22.70;14.25;;;;;;;;;;5114587;28;20020;-76
2022/09/13 06:30:26;;;;;;;20.98;13.75;;;;;;;;;;5114706;28;20027;-76
2022/09/13 06:32:55;;;;;;;29.13;14.77;;;;;;;;;;5114618;28;20032;-76
2022/09/13 06:35:21;;;;;;;28.17;15.30;;;;;;;;;;5114686;28;20042;-76
2022/09/13 06:37:47;;;;;;;25.80;14.73;;;;;;;;;;5114479;28;20362;-76
2022/09/13 06:40:13;;;;;;;23.77;14.43;;;;;;;;;;5114280;28;20462;-76
2022/09/13 06:42:39;;;;;;;23.10;13.35;;;;;;;;;;5114392;28;20035;-76
2022/09/13 06:45:05;;;;;;;29.98;15.65;;;;;;;;;;5114257;28;20028;-76
2022/09/13 06:47:32;;;;;;;30.83;16.83;;;;;;;;;;5114464;28;20027;-76
2022/09/13 06:49:59;;;;;;;28.40;16.15;;;;;;;;;;5114311;28;20030;-76
2022/09/13 06:52:26;;;;;;;29.50;17.55;;;;;;;;;;5095850;28;20028;-76
2022/09/13 06:54:52;;;;;;;30.48;19.00;;;;;;;;;;5108371;28;20095;-76
2022/09/13 06:57:18;;;;;;;35.72;18.70;;;;;;;;;;5093702;28;20070;-76
2022/09/13 06:59:44;;;;;;;30.40;17.20;;;;;;;;;;5093406;28;20028;-76
2022/09/13 07:02:13;;;;;;;27.70;18.05;;;;;;;;;;5093633;28;20052;-76
2022/09/13 07:04:39;;;;;;;37.83;19.23;;;;;;;;;;5092936;28;20056;-76
2022/09/13 07:07:05;;;;;;;39.85;19.98;;;;;;;;;;5093524;28;20048;-76
2022/09/13 07:09:33;;;;;;;38.83;20.85;;;;;;;;;;5075224;28;20389;-76
2022/09/13 07:11:59;;;;;;;38.15;18.92;;;;;;;;;;5093172;28;20028;-77
2022/09/13 07:14:26;;;;;;;36.63;20.77;;;;;;;;;;5093312;28;20031;-76
2022/09/13 07:16:53;;;;;;;39.80;21.60;;;;;;;;;;5093678;28;20135;-76
2022/09/13 07:19:25;;;;;;;37.45;20.52;;;;;;;;;;5097799;28;20661;-76
2022/09/13 07:21:51;;;;;;;35.93;20.70;;;;;;;;;;5112958;28;20615;-75
2022/09/13 07:24:17;;;;;;;44.55;20.73;;;;;;;;;;5112748;28;20031;-76
2022/09/13 07:26:44;;;;;;;40.88;21.55;;;;;;;;;;5112527;28;20011;-76
2022/09/13 07:29:13;;;;;;;39.50;21.35;;;;;;;;;;5112053;27;20031;-76
2022/09/13 07:31:40;;;;;;;34.15;21.27;;;;;;;;;;5122692;27;20067;-76
2022/09/13 07:34:07;;;;;;;44.13;21.98;;;;;;;;;;5121488;27;20026;-76
2022/09/13 07:36:35;;;;;;;36.92;19.67;;;;;;;;;;5122362;27;20857;-76
2022/09/13 07:39:01;;;;;;;33.58;18.35;;;;;;;;;;5120809;27;20083;-76
2022/09/13 07:41:28;;;;;;;33.58;19.35;;;;;;;;;;5121304;27;20107;-76
2022/09/13 07:43:55;;;;;;;37.17;20.05;;;;;;;;;;5112032;28;20011;-76
2022/09/13 07:46:22;;;;;;;36.13;20.30;;;;;;;;;;5111774;28;20024;-76
2022/09/13 07:48:48;;;;;;;38.08;19.70;;;;;;;;;;5110631;28;20271;-76
2022/09/13 07:51:16;;;;;;;40.15;21.55;;;;;;;;;;5112291;28;20032;-76
2022/09/13 07:53:43;;;;;;;31.75;19.10;;;;;;;;;;5112860;28;20106;-77
2022/09/13 07:56:10;;;;;;;32.58;19.60;;;;;;;;;;5113530;28;20035;-82
2022/09/13 07:58:37;;;;;;;33.60;19.23;;;;;;;;;;5113957;28;20425;-80
2022/09/13 08:01:07;;;;;;;31.38;19.17;;;;;;;;;;5114083;28;20024;-81
2022/09/13 08:03:34;;;;;;;29.30;18.58;;;;;;;;;;5114231;28;20039;-80
2022/09/13 08:06:00;;;;;;;36.13;19.33;;;;;;;;;;5107942;28;20528;-78
2022/09/13 08:08:27;;;;;;;33.30;18.80;;;;;;;;;;5093249;28;20055;-81
2022/09/13 08:10:53;;;;;;;34.20;17.80;;;;;;;;;;5093363;28;20021;-81
2022/09/13 08:13:19;;;;;;;25.70;16.00;;;;;;;;;;5082642;28;20377;-82
2022/09/13 08:15:46;;;;;;;28.60;16.40;;;;;;;;;;5094947;28;20031;-82
2022/09/13 08:18:12;;;;;;;31.05;15.93;;;;;;;;;;5099631;28;20055;-82
2022/09/13 08:20:38;;;;;;;27.17;15.77;;;;;;;;;;5093354;28;20031;-82
2022/09/13 08:23:05;;;;;;;28.65;15.07;;;;;;;;;;5074890;28;20028;-81
2022/09/13 08:25:33;;;;;;;38.85;16.85;;;;;;;;;;5099461;28;20020;-80
2022/09/13 08:27:59;;;;;;;23.40;13.18;;;;;;;;;;5113833;28;20023;-84
2022/09/13 08:30:31;;;;;;;19.98;10.60;;;;;;;;;;5113663;28;20027;-80
2022/09/13 08:32:58;;;;;;;16.55;9.63;;;;;;;;;;5113702;28;20069;-80
2022/09/13 08:35:24;;;;;;;19.17;10.48;;;;;;;;;;5113313;28;20020;-78
2022/09/13 08:37:50;;;;;;;15.82;9.90;;;;;;;;;;5094756;28;20453;-79
2022/09/13 08:40:16;;;;;;;12.50;8.43;;;;;;;;;;5113142;28;20040;-79
2022/09/13 08:42:48;;;;;;;15.23;8.50;;;;;;;;;;5113285;28;20035;-78
2022/09/13 08:45:14;;;;;;;11.80;7.82;;;;;;;;;;5113358;28;20027;-78
2022/09/13 08:47:46;;;;;;;17.20;8.35;;;;;;;;;;5113420;28;20103;-78
2022/09/13 08:50:14;;;;;;;12.55;7.68;;;;;;;;;;5113873;28;20024;-78
2022/09/13 08:52:46;;;;;;;13.13;8.32;;;;;;;;;;5113584;28;20020;-79
2022/09/13 08:55:21;;;;;;;13.25;8.52;;;;;;;;;;5104995;28;20043;-79
2022/09/13 08:57:52;;;;;;;21.10;8.32;;;;;;;;;;5092659;28;20091;-80
2022/09/13 09:00:21;;;;;;;15.57;8.25;;;;;;;;;;5092726;28;20020;-80
2022/09/13 09:02:48;;;;;;;12.40;8.02;;;;;;;;;;5092734;28;20020;-80
2022/09/13 09:05:19;;;;;;;14.30;8.90;;;;;;;;;;5092697;28;20028;-80
2022/09/13 09:07:47;;;;;;;15.25;8.60;;;;;;;;;;5074440;28;20078;-82
2022/09/13 09:10:18;;;;;;;11.93;7.90;;;;;;;;;;5092538;28;20481;-82
2022/09/13 09:12:51;;;;;;;13.05;8.27;;;;;;;;;;5074237;28;20044;-83
2022/09/13 09:15:20;;;;;;;14.38;7.95;;;;;;;;;;5074227;28;20029;-84
2022/09/13 09:17:50;;;;;;;10.63;6.93;;;;;;;;;;5074138;28;20194;-83
2022/09/13 09:20:16;;;;;;;10.82;6.45;;;;;;;;;;5074138;28;20020;-82
2022/09/13 09:22:43;;;;;;;11.27;6.03;;;;;;;;;;5092607;28;20028;-82
2022/09/13 09:25:11;;;;;;;11.10;6.57;;;;;;;;;;5092328;28;20024;-81
2022/09/13 09:27:37;;;;;;;14.10;6.18;;;;;;;;;;5075110;28;20024;-81
2022/09/13 09:30:03;;;;;;;12.80;6.05;;;;;;;;;;5078015;28;20024;-81
2022/09/13 09:32:38;;;;;;;11.98;4.93;;;;;;;;;;5096693;28;20032;-81
2022/09/13 09:35:16;;;;;;;6.28;3.63;;;;;;;;;;5096841;28;20024;-81
2022/09/13 09:37:46;;;;;;;8.07;3.97;;;;;;;;;;5096892;28;20027;-82
2022/09/13 09:40:15;;;;;;;8.68;4.80;;;;;;;;;;5096460;28;20038;-81
2022/09/13 09:42:46;;;;;;;6.30;4.20;;;;;;;;;;5096316;28;20028;-82
2022/09/13 09:45:25;;;;;;;7.47;4.65;;;;;;;;;;5124703;27;20523;-82
2022/09/13 09:47:52;;;;;;;11.38;5.45;;;;;;;;;;5137028;27;20102;-82
2022/09/13 09:50:29;;;;;;;6.88;3.90;;;;;;;;;;5122207;27;20088;-82
2022/09/13 09:52:57;;;;;;;9.93;3.92;;;;;;;;;;5116192;28;20064;-82
2022/09/13 09:55:23;;;;;;;6.20;2.90;;;;;;;;;;5116370;28;20034;-82
2022/09/13 09:57:54;;;;;;;3.65;2.45;;;;;;;;;;5116262;28;20026;-82
2022/09/13 10:00:20;;;;;;;3.70;1.65;;;;;;;;;;5130541;27;20441;-82
2022/09/13 10:02:47;;;;;;;3.78;1.90;;;;;;;;;;5136876;27;20080;-83
2022/09/13 10:05:18;;;;;;;2.95;1.60;;;;;;;;;;5136832;27;20065;-82
2022/09/13 10:07:50;;;;;;;4.20;1.70;;;;;;;;;;5117218;27;20027;-82
2022/09/13 10:10:16;;;;;;;;;;;;;;;;;;5116511;28;20031;-82
2022/09/13 10:12:42;;;;;;;4.60;1.42;;;;;;;;;;5115967;28;19916;-82
2022/09/13 10:15:19;;;;;;;3.88;1.15;;;;;;;;;;5123281;27;20114;-82
2022/09/13 10:18:00;;;;;;;2.58;1.38;;;;;;;;;;5115788;28;20104;-83
2022/09/13 10:20:27;;;;;;;2.97;1.60;;;;;;;;;;5105185;28;20047;-83
2022/09/13 10:23:10;;;;;;;4.80;1.50;;;;;;;;;;5131002;27;20030;-83
2022/09/13 10:25:36;;;;;;;5.03;1.50;;;;;;;;;;5095292;28;20103;-83
2022/09/13 10:28:04;;;;;;;3.65;1.58;;;;;;;;;;5095480;28;20330;-83
2022/09/13 10:30:30;;;;;;;3.08;2.03;;;;;;;;;;5109910;28;20023;-83
2022/09/13 10:32:57;;;;;;;2.85;1.30;;;;;;;;;;5115544;28;20570;-82
2022/09/13 10:35:23;;;;;;;3.45;1.25;;;;;;;;;;5096734;28;20059;-82
2022/09/13 10:37:50;;;;;;;3.92;1.35;;;;;;;;;;5115463;28;20061;-82
2022/09/13 10:40:20;;;;;;;3.70;1.10;;;;;;;;;;5096762;28;20051;-83
2022/09/13 10:42:53;;;;;;;6.57;1.40;;;;;;;;;;5076791;28;20089;-81
2022/09/13 10:45:23;;;;;;;4.68;1.20;;;;;;;;;;5094928;28;20032;-83
2022/09/13 10:47:51;;;;;;;5.32;1.13;;;;;;;;;;5094825;28;20028;-82
2022/09/13 10:50:21;;;;;;;4.30;1.73;;;;;;;;;;5094841;28;20027;-82
2022/09/13 10:52:49;;;;;;;6.53;1.52;;;;;;;;;;5076875;28;20119;-80
2022/09/13 10:55:18;;;;;;;4.20;1.40;;;;;;;;;;5103127;28;20084;-80
2022/09/13 10:57:48;;;;;;;3.50;1.50;;;;;;;;;;5114986;28;20101;-79
2022/09/13 11:00:19;;;;;;;3.33;1.00;;;;;;;;;;5115247;28;20055;-80
2022/09/13 11:02:54;;;;;;;6.30;1.10;;;;;;;;;;5115401;28;20047;-80
2022/09/13 11:05:29;;;;;;;3.72;1.10;;;;;;;;;;5114990;28;20024;-80
2022/09/13 11:07:55;;;;;;;5.85;1.17;;;;;;;;;;5115209;28;20466;-80
2022/09/13 11:10:41;;;;;;;5.55;1.20;;;;;;;;;;5096197;28;20047;-80
2022/09/13 11:13:22;;;;;;;5.55;1.30;;;;;;;;;;5088056;28;20048;-82
2022/09/13 11:15:57;;;;;;;4.15;1.70;;;;;;;;;;5114743;28;20023;-81
2022/09/13 11:18:35;;;;;;;4.03;1.15;;;;;;;;;;5133813;27;20098;-81
2022/09/13 11:21:07;;;;;;;5.85;1.30;;;;;;;;;;5102533;28;20401;-81
2022/09/13 11:23:33;;;;;;;;;;;;;;;;;;5097103;28;20068;-81
2022/09/13 11:26:08;;;;;;;3.85;1.50;;;;;;;;;;5114688;28;19907;-81
2022/09/13 11:28:34;;;;;;;1.77;1.13;;;;;;;;;;5112707;27;20054;-81
2022/09/13 11:31:16;;;;;;;3.15;1.17;;;;;;;;;;5134870;27;20073;-81
2022/09/13 11:33:45;;;;;;;2.30;1.10;;;;;;;;;;5135009;27;20015;-81
2022/09/13 11:36:41;;;;;;;6.50;1.25;;;;;;;;;;5120758;27;20015;-81
2022/09/13 11:39:07;;;;;;;3.03;1.17;;;;;;;;;;5043368;27;20071;-80
2022/09/13 11:41:36;;;;;;;7.15;1.10;;;;;;;;;;5114272;27;20028;-80
2022/09/13 11:44:20;;;;;;;12.82;1.50;;;;;;;;;;5114244;28;20454;-82
2022/09/13 11:46:52;;;;;;;5.20;1.00;;;;;;;;;;5102871;28;20489;-79
2022/09/13 11:49:42;;;;;;;4.03;1.08;;;;;;;;;;5092946;28;20113;-79
2022/09/13 11:52:19;;;;;;;2.65;1.02;;;;;;;;;;5107279;28;20039;-80
2022/09/13 11:54:46;;;;;;;1.77;0.70;;;;;;;;;;5100999;28;20370;-78
2022/09/13 11:57:23;;;;;;;2.72;1.52;;;;;;;;;;5122150;27;20020;-78
2022/09/13 11:59:54;;;;;;;2.92;0.80;;;;;;;;;;5121865;27;20055;-78
2022/09/13 12:02:25;;;;;;;3.00;0.73;;;;;;;;;;5112901;28;20046;-79
2022/09/13 12:04:54;;;;;;;2.70;0.73;;;;;;;;;;5113407;28;20353;-79
2022/09/13 12:07:34;;;;;;;8.75;0.80;;;;;;;;;;5093852;28;20019;-84
2022/09/13 12:10:03;;;;;;;3.42;0.80;;;;;;;;;;5075227;28;20031;-81
2022/09/13 12:12:31;;;;;;;3.10;1.00;;;;;;;;;;5074938;28;20040;-80
2022/09/13 12:15:02;;;;;;;3.05;0.90;;;;;;;;;;5094902;28;20039;-82
2022/09/13 12:17:28;;;;;;;1.95;0.77;;;;;;;;;;5095399;28;20030;-83
2022/09/13 12:19:56;;;;;;;2.35;0.70;;;;;;;;;;5095013;28;20024;-80
2022/09/13 12:22:24;;;;;;;4.85;0.93;;;;;;;;;;5113501;28;20023;-80
2022/09/13 12:24:52;;;;;;;1.50;0.93;;;;;;;;;;5095084;28;20477;-80
2022/09/13 12:27:37;;;;;;;2.03;0.80;;;;;;;;;;5110646;28;20027;-79
2022/09/13 12:30:13;;;;;;;1.98;0.88;;;;;;;;;;5116127;28;20333;-79
2022/09/13 12:32:39;;;;;;;5.47;1.10;;;;;;;;;;5115183;28;20019;-78
2022/09/13 12:35:08;;;;;;;3.80;1.20;;;;;;;;;;5112844;28;20062;-79
2022/09/13 12:37:43;;;;;;;4.40;1.08;;;;;;;;;;5112597;28;20527;-79
2022/09/13 12:40:11;;;;;;;2.65;1.00;;;;;;;;;;5110907;28;20015;-80
2022/09/13 12:42:55;;;;;;;4.88;1.10;;;;;;;;;;5111430;28;20027;-82
2022/09/13 12:45:35;;;;;;;5.60;1.10;;;;;;;;;;5105497;28;20020;-81
2022/09/13 12:48:04;;;;;;;4.22;0.90;;;;;;;;;;5099382;27;20034;-81
2022/09/13 12:50:31;;;;;;;3.45;0.80;;;;;;;;;;5094904;28;20039;-81
2022/09/13 12:53:17;;;;;;;21.27;1.40;;;;;;;;;;5094897;28;20453;-81
2022/09/13 12:55:59;;;;;;;3.85;0.90;;;;;;;;;;5096776;28;20484;-82
2022/09/13 12:58:44;;;;;;;4.50;0.80;;;;;;;;;;5113131;28;20069;-80
2022/09/13 13:01:17;;;;;;;4.95;1.10;;;;;;;;;;5112874;28;20020;-81
2022/09/13 13:03:52;;;;;;;3.58;0.98;;;;;;;;;;5093768;28;20028;-80
2022/09/13 13:06:23;;;;;;;4.72;1.15;;;;;;;;;;5112076;28;20166;-79
2022/09/13 13:08:51;;;;;;;1.83;0.70;;;;;;;;;;5106731;28;20020;-78
2022/09/13 13:11:19;;;;;;;2.92;0.70;;;;;;;;;;5093309;28;20023;-78
2022/09/13 13:13:52;;;;;;;4.57;1.00;;;;;;;;;;5120513;28;20434;-78
2022/09/13 13:16:28;;;;;;;5.50;0.85;;;;;;;;;;5112438;28;20039;-78
2022/09/13 13:18:58;;;;;;;4.85;1.00;;;;;;;;;;5112505;28;20122;-80
2022/09/13 13:21:28;;;;;;;3.92;0.80;;;;;;;;;;5113298;28;20035;-80
2022/09/13 13:24:12;;;;;;;1.63;0.60;;;;;;;;;;5113102;28;20442;-79
2022/09/13 13:26:44;;;;;;;2.70;0.85;;;;;;;;;;5112602;28;20114;-80
2022/09/13 13:29:16;;;;;;;1.83;0.70;;;;;;;;;;5112911;28;20477;-80
2022/09/13 13:31:42;;;;;;;;;;;;;;;;;;5113257;28;20038;-84
2022/09/13 13:34:14;;;;;;;2.90;0.63;;;;;;;;;;5113204;28;19930;-81
2022/09/13 13:36:40;;;;;;;3.55;0.95;;;;;;;;;;5112900;28;20473;-82
2022/09/13 13:39:11;;;;;;;4.20;1.00;;;;;;;;;;5098998;28;20493;-83
2022/09/13 13:41:40;;;;;;;2.50;0.73;;;;;;;;;;5092431;28;20043;-82
2022/09/13 13:44:16;;;;;;;7.28;0.93;;;;;;;;;;5106783;28;20039;-82
2022/09/13 13:46:43;;;;;;;2.67;0.70;;;;;;;;;;5112311;28;20028;-82
2022/09/13 13:49:44;;;;;;;7.55;0.95;;;;;;;;;;5094320;28;20369;-82
2022/09/13 13:52:12;;;;;;;2.72;1.13;;;;;;;;;;5081546;28;20080;-83
2022/09/13 13:54:41;;;;;;;4.53;0.70;;;;;;;;;;5111782;28;20030;-84
2022/09/13 13:57:25;;;;;;;5.13;0.60;;;;;;;;;;5092412;28;20024;-84
2022/09/13 13:59:53;;;;;;;4.07;0.80;;;;;;;;;;5074229;28;20028;-81
2022/09/13 14:02:22;;;;;;;3.78;0.82;;;;;;;;;;5092298;28;20016;-83
2022/09/13 14:05:07;;;;;;;3.88;0.68;;;;;;;;;;5110747;28;20028;-81
2022/09/13 14:07:40;;;;;;;2.38;0.60;;;;;;;;;;5114139;28;20084;-81
2022/09/13 14:10:13;;;;;;;2.47;0.73;;;;;;;;;;5108057;28;20011;-81
2022/09/13 14:12:54;;;;;;;1.33;0.60;;;;;;;;;;5103587;28;20043;-81
2022/09/13 14:15:27;;;;;;;9.93;1.37;;;;;;;;;;5100186;28;20027;-81
2022/09/13 14:18:11;;;;;;;5.38;1.00;;;;;;;;;;5116077;28;20027;-82
2022/09/13 14:20:38;;;;;;;2.88;0.70;;;;;;;;;;5091276;28;20027;-81
2022/09/13 14:23:19;;;;;;;6.38;0.80;;;;;;;;;;5095714;28;20035;-81
2022/09/13 14:25:46;;;;;;;8.35;0.82;;;;;;;;;;5107355;28;20065;-82
2022/09/13 14:28:22;;;;;;;8.93;0.90;;;;;;;;;;5111263;28;20020;-81
2022/09/13 14:30:51;;;;;;;2.17;0.93;;;;;;;;;;5115564;28;20107;-81
2022/09/13 14:33:36;;;;;;;5.32;0.90;;;;;;;;;;5093305;28;20031;-80
2022/09/13 14:36:21;;;;;;;3.22;0.70;;;;;;;;;;5112458;28;20028;-86
2022/09/13 14:38:52;;;;;;;2.63;0.52;;;;;;;;;;5097951;28;20433;-82
2022/09/13 14:41:19;;;;;;;2.45;0.60;;;;;;;;;;5116336;28;20038;-84
2022/09/13 14:43:46;;;;;;;3.92;0.70;;;;;;;;;;5115942;28;20019;-85